CDG weather

Charles de Gaulle International Airport
Paris, Île-de-France, France

Public forecast

Using degrees Celsius for public forecast. Weather courtesy of forecast.io.

METAR (pilot weather report)

Retrieved 2017/03/28 13:30 UTC (19 minutes ago):

LFPG 281330Z VRB02KT 9999 R09L/1100U SCT040CB BKN086 15/08 Q1023 RETS TEMPO SCT080CB

TAF (pilot weather forecast)

Retrieved 2017/03/28 12:21 UTC (1 hour ago):

TAF LFPG 281100Z 2812/2918 24010KT CAVOK PROB30 TEMPO 2813/2818 SCT030 SCT040TCU BECMG 2904/2906 BKN035 PROB40 TEMPO 2904/2906 4000 BR BECMG 2915/2917 CAVOK TX19/2915Z TN08/2903Z